KBFM/BFM METAR and TAF weather

Enter ICAO airport designator
Station Type Date Time Source
KBFM METAR 2019/04/24 21:53 UTC NOAA

KBFM 242153Z 15008KT 10SM FEW010 SCT016 23/21 A2999 RMK AO2 SLP153 T02330211


Station Type Date Time Source
KBFM Decoded METAR 2019/04/24 21:53 UTC NOAA

MOBILE DOWNTOWN AIRPORT, AL, United States (KBFM) 30-38N 88-04W 20M
Apr 24, 2019 - 05:53 PM EDT / 2019.04.24 2153 UTC
Wind: from the SSE (150 degrees) at 9 MPH (8 KT):0
Visibility: 10 mile(s):0
Sky conditions: partly cloudy
Temperature: 73.9 F (23.3 C)
Dew Point: 70.0 F (21.1 C)
Relative Humidity: 87%
Pressure (altimeter): 29.99 in. Hg (1015 hPa)
ob: KBFM 242153Z 15008KT 10SM FEW010 SCT016 23/21 A2999 RMK AO2 SLP153 T02330211
cycle: 22

Station Type Date Time Source
KBFM TAF 2019/04/24 18:28 UTC NOAA

TAF KBFM 241725Z 2418/2518 15003KT P6SM FEW011 SCT040 BKN250
FM250600 16005KT P6SM BKN025
FM251000 15008KT 6SM BR OVC025
FM251600 17015G20KT P6SM OVC015

Example: see airport list